sensor_id;sensor_type;location;lat;lon;timestamp;pressure;altitude;pressure_sealevel;temperature;humidity
46876;BME280;32866;50.160;14.768;2023-12-07T00:02:09;99477.09;;;-0.77;100.00
46876;BME280;32866;50.160;14.768;2023-12-07T00:04:40;99484.38;;;-0.77;100.00
46876;BME280;32866;50.160;14.768;2023-12-07T00:07:06;99462.28;;;-1.09;100.00
46876;BME280;32866;50.160;14.768;2023-12-07T00:09:32;99480.44;;;-0.83;100.00
46876;BME280;32866;50.160;14.768;2023-12-07T00:11:58;99480.78;;;-0.85;100.00
46876;BME280;32866;50.160;14.768;2023-12-07T00:14:24;99420.13;;;-1.25;100.00
46876;BME280;32866;50.160;14.768;2023-12-07T00:16:50;99478.94;;;-1.04;100.00
46876;BME280;32866;50.160;14.768;2023-12-07T00:19:16;99429.22;;;-1.33;100.00
46876;BME280;32866;50.160;14.768;2023-12-07T00:21:42;99432.47;;;-1.43;100.00
46876;BME280;32866;50.160;14.768;2023-12-07T00:24:08;99429.38;;;-1.45;100.00
46876;BME280;32866;50.160;14.768;2023-12-07T00:26:34;99427.16;;;-1.40;100.00
46876;BME280;32866;50.160;14.768;2023-12-07T00:29:00;99472.34;;;-1.06;100.00
46876;BME280;32866;50.160;14.768;2023-12-07T00:31:26;99506.31;;;-0.98;100.00
46876;BME280;32866;50.160;14.768;2023-12-07T00:33:52;99430.56;;;-1.43;100.00
46876;BME280;32866;50.160;14.768;2023-12-07T00:36:18;99471.22;;;-1.25;100.00
46876;BME280;32866;50.160;14.768;2023-12-07T00:38:44;99479.56;;;-1.10;100.00
46876;BME280;32866;50.160;14.768;2023-12-07T00:41:11;99465.66;;;-1.36;100.00
46876;BME280;32866;50.160;14.768;2023-12-07T00:43:37;99504.75;;;-0.99;100.00
46876;BME280;32866;50.160;14.768;2023-12-07T00:46:03;99475.78;;;-1.29;100.00
46876;BME280;32866;50.160;14.768;2023-12-07T00:48:30;99506.19;;;-1.05;100.00
46876;BME280;32866;50.160;14.768;2023-12-07T00:50:56;99489.22;;;-1.29;100.00
46876;BME280;32866;50.160;14.768;2023-12-07T00:53:22;99517.00;;;-1.02;100.00
46876;BME280;32866;50.160;14.768;2023-12-07T00:55:48;99515.84;;;-1.01;100.00
46876;BME280;32866;50.160;14.768;2023-12-07T00:58:14;99499.25;;;-1.06;100.00
46876;BME280;32866;50.160;14.768;2023-12-07T01:00:40;99503.84;;;-1.07;100.00
46876;BME280;32866;50.160;14.768;2023-12-07T01:03:06;99477.19;;;-1.35;100.00
46876;BME280;32866;50.160;14.768;2023-12-07T01:05:32;99520.06;;;-1.03;100.00
46876;BME280;32866;50.160;14.768;2023-12-07T01:07:58;99502.28;;;-1.27;100.00
46876;BME280;32866;50.160;14.768;2023-12-07T01:10:25;99521.53;;;-1.06;100.00
46876;BME280;32866;50.160;14.768;2023-12-07T01:12:51;99522.75;;;-1.03;100.00
46876;BME280;32866;50.160;14.768;2023-12-07T01:15:17;99495.59;;;-1.37;100.00
46876;BME280;32866;50.160;14.768;2023-12-07T01:17:43;99520.56;;;-1.17;100.00
46876;BME280;32866;50.160;14.768;2023-12-07T01:20:09;99524.78;;;-0.97;100.00
46876;BME280;32866;50.160;14.768;2023-12-07T01:22:40;99481.88;;;-1.32;100.00
46876;BME280;32866;50.160;14.768;2023-12-07T01:25:07;99518.53;;;-1.01;100.00
46876;BME280;32866;50.160;14.768;2023-12-07T01:27:34;99516.38;;;-0.95;100.00
46876;BME280;32866;50.160;14.768;2023-12-07T01:30:00;99538.41;;;-0.86;100.00
46876;BME280;32866;50.160;14.768;2023-12-07T01:32:26;99503.06;;;-1.07;100.00
46876;BME280;32866;50.160;14.768;2023-12-07T01:34:52;99531.72;;;-0.96;100.00
46876;BME280;32866;50.160;14.768;2023-12-07T01:37:18;99536.59;;;-1.01;100.00
46876;BME280;32866;50.160;14.768;2023-12-07T01:39:44;99503.94;;;-1.42;100.00
46876;BME280;32866;50.160;14.768;2023-12-07T01:42:10;99505.22;;;-1.56;100.00
46876;BME280;32866;50.160;14.768;2023-12-07T01:44:39;99510.94;;;-1.57;100.00
46876;BME280;32866;50.160;14.768;2023-12-07T01:47:06;99488.44;;;-1.69;100.00
46876;BME280;32866;50.160;14.768;2023-12-07T01:49:34;99486.09;;;-1.70;100.00
46876;BME280;32866;50.160;14.768;2023-12-07T01:52:01;99544.69;;;-1.40;100.00
46876;BME280;32866;50.160;14.768;2023-12-07T01:54:29;99542.72;;;-1.24;100.00
46876;BME280;32866;50.160;14.768;2023-12-07T01:56:55;99539.03;;;-1.16;100.00
46876;BME280;32866;50.160;14.768;2023-12-07T01:59:22;99534.44;;;-1.15;100.00
46876;BME280;32866;50.160;14.768;2023-12-07T02:01:49;99538.25;;;-1.16;100.00
46876;BME280;32866;50.160;14.768;2023-12-07T02:04:15;99538.59;;;-1.18;100.00
46876;BME280;32866;50.160;14.768;2023-12-07T02:06:41;99533.38;;;-1.30;100.00
46876;BME280;32866;50.160;14.768;2023-12-07T02:09:07;99505.22;;;-1.56;100.00
46876;BME280;32866;50.160;14.768;2023-12-07T02:11:34;99524.72;;;-1.20;100.00
46876;BME280;32866;50.160;14.768;2023-12-07T02:14:01;99498.28;;;-1.37;100.00
46876;BME280;32866;50.160;14.768;2023-12-07T02:16:43;99528.28;;;-1.16;100.00
46876;BME280;32866;50.160;14.768;2023-12-07T02:22:08;99566.06;;;-1.08;100.00
46876;BME280;32866;50.160;14.768;2023-12-07T02:24:37;99532.66;;;-1.27;100.00
46876;BME280;32866;50.160;14.768;2023-12-07T02:27:03;99550.34;;;-1.26;100.00
46876;BME280;32866;50.160;14.768;2023-12-07T02:29:29;99534.94;;;-1.29;100.00
46876;BME280;32866;50.160;14.768;2023-12-07T02:31:55;99556.84;;;-1.07;100.00
46876;BME280;32866;50.160;14.768;2023-12-07T02:34:21;99521.91;;;-1.27;100.00
46876;BME280;32866;50.160;14.768;2023-12-07T02:36:48;99562.97;;;-1.10;100.00
46876;BME280;32866;50.160;14.768;2023-12-07T02:39:15;99520.41;;;-1.63;100.00
46876;BME280;32866;50.160;14.768;2023-12-07T02:41:43;99564.84;;;-1.11;100.00
46876;BME280;32866;50.160;14.768;2023-12-07T02:44:11;99521.63;;;-1.41;100.00
46876;BME280;32866;50.160;14.768;2023-12-07T02:46:37;99574.63;;;-1.03;100.00
46876;BME280;32866;50.160;14.768;2023-12-07T02:49:03;99550.63;;;-1.31;100.00
46876;BME280;32866;50.160;14.768;2023-12-07T02:51:29;99537.88;;;-1.34;100.00
46876;BME280;32866;50.160;14.768;2023-12-07T02:53:58;99579.31;;;-1.00;100.00
46876;BME280;32866;50.160;14.768;2023-12-07T02:56:23;99562.09;;;-1.15;100.00
46876;BME280;32866;50.160;14.768;2023-12-07T02:58:49;99573.00;;;-1.27;100.00
46876;BME280;32866;50.160;14.768;2023-12-07T03:01:15;99574.78;;;-1.15;100.00
46876;BME280;32866;50.160;14.768;2023-12-07T03:03:41;99588.72;;;-1.09;100.00
46876;BME280;32866;50.160;14.768;2023-12-07T03:06:08;99597.19;;;-1.07;100.00
46876;BME280;32866;50.160;14.768;2023-12-07T03:08:34;99578.81;;;-1.05;100.00
46876;BME280;32866;50.160;14.768;2023-12-07T03:11:00;99586.09;;;-1.06;100.00
46876;BME280;32866;50.160;14.768;2023-12-07T03:13:26;99575.63;;;-1.31;100.00
46876;BME280;32866;50.160;14.768;2023-12-07T03:15:52;99594.38;;;-1.15;100.00
46876;BME280;32866;50.160;14.768;2023-12-07T03:18:18;99594.38;;;-1.15;100.00
46876;BME280;32866;50.160;14.768;2023-12-07T03:20:44;99543.63;;;-1.55;100.00
46876;BME280;32866;50.160;14.768;2023-12-07T03:23:10;99600.91;;;-1.16;100.00
46876;BME280;32866;50.160;14.768;2023-12-07T03:25:36;99601.59;;;-1.19;100.00
46876;BME280;32866;50.160;14.768;2023-12-07T03:28:02;99561.94;;;-1.61;100.00
46876;BME280;32866;50.160;14.768;2023-12-07T03:30:28;99608.81;;;-1.23;100.00
46876;BME280;32866;50.160;14.768;2023-12-07T03:32:54;99564.69;;;-1.57;100.00
46876;BME280;32866;50.160;14.768;2023-12-07T03:35:20;99597.59;;;-1.44;100.00
46876;BME280;32866;50.160;14.768;2023-12-07T03:37:46;99593.28;;;-1.49;100.00
46876;BME280;32866;50.160;14.768;2023-12-07T03:40:12;99614.19;;;-1.23;100.00
46876;BME280;32866;50.160;14.768;2023-12-07T03:42:38;99605.31;;;-1.43;100.00
46876;BME280;32866;50.160;14.768;2023-12-07T03:45:04;99615.75;;;-1.22;100.00
46876;BME280;32866;50.160;14.768;2023-12-07T03:47:31;99636.41;;;-1.26;100.00
46876;BME280;32866;50.160;14.768;2023-12-07T03:49:57;99578.56;;;-1.55;100.00
46876;BME280;32866;50.160;14.768;2023-12-07T03:52:23;99600.22;;;-1.48;100.00
46876;BME280;32866;50.160;14.768;2023-12-07T03:54:49;99589.81;;;-1.50;100.00
46876;BME280;32866;50.160;14.768;2023-12-07T03:57:15;99575.09;;;-1.56;100.00
46876;BME280;32866;50.160;14.768;2023-12-07T03:59:41;99602.41;;;-1.34;100.00
46876;BME280;32866;50.160;14.768;2023-12-07T04:02:07;99619.16;;;-1.25;100.00
46876;BME280;32866;50.160;14.768;2023-12-07T04:04:33;99613.19;;;-1.34;100.00
46876;BME280;32866;50.160;14.768;2023-12-07T04:06:59;99610.69;;;-1.43;100.00
46876;BME280;32866;50.160;14.768;2023-12-07T04:09:25;99627.84;;;-1.32;100.00
46876;BME280;32866;50.160;14.768;2023-12-07T04:11:51;99606.63;;;-1.53;100.00
46876;BME280;32866;50.160;14.768;2023-12-07T04:14:18;99613.72;;;-1.44;100.00
46876;BME280;32866;50.160;14.768;2023-12-07T04:16:44;99630.31;;;-1.23;100.00
46876;BME280;32866;50.160;14.768;2023-12-07T04:19:10;99624.72;;;-1.34;100.00
46876;BME280;32866;50.160;14.768;2023-12-07T04:21:36;99631.44;;;-1.43;100.00
46876;BME280;32866;50.160;14.768;2023-12-07T04:24:02;99644.03;;;-1.28;100.00
46876;BME280;32866;50.160;14.768;2023-12-07T04:26:28;99653.00;;;-1.24;100.00
46876;BME280;32866;50.160;14.768;2023-12-07T04:28:54;99646.31;;;-1.30;100.00
46876;BME280;32866;50.160;14.768;2023-12-07T04:31:20;99616.38;;;-1.64;100.00
46876;BME280;32866;50.160;14.768;2023-12-07T04:33:47;99657.00;;;-1.34;100.00
46876;BME280;32866;50.160;14.768;2023-12-07T04:36:13;99666.34;;;-1.27;100.00
46876;BME280;32866;50.160;14.768;2023-12-07T04:38:39;99624.88;;;-1.62;100.00
46876;BME280;32866;50.160;14.768;2023-12-07T04:41:05;99627.22;;;-1.60;100.00
46876;BME280;32866;50.160;14.768;2023-12-07T04:43:31;99603.03;;;-1.60;100.00
46876;BME280;32866;50.160;14.768;2023-12-07T04:45:57;99661.81;;;-1.23;100.00
46876;BME280;32866;50.160;14.768;2023-12-07T04:48:23;99671.00;;;-1.24;100.00
46876;BME280;32866;50.160;14.768;2023-12-07T04:50:51;99663.28;;;-1.26;100.00
46876;BME280;32866;50.160;14.768;2023-12-07T04:53:17;99669.53;;;-1.22;100.00
46876;BME280;32866;50.160;14.768;2023-12-07T04:55:43;99611.03;;;-1.44;100.00
46876;BME280;32866;50.160;14.768;2023-12-07T04:58:14;99631.56;;;-1.36;100.00
46876;BME280;32866;50.160;14.768;2023-12-07T05:00:41;99608.47;;;-1.57;100.00
46876;BME280;32866;50.160;14.768;2023-12-07T05:03:07;99665.63;;;-1.24;100.00
46876;BME280;32866;50.160;14.768;2023-12-07T05:05:33;99679.59;;;-1.19;100.00
46876;BME280;32866;50.160;14.768;2023-12-07T05:07:59;99672.59;;;-1.23;100.00
46876;BME280;32866;50.160;14.768;2023-12-07T05:10:25;99682.91;;;-1.25;100.00
46876;BME280;32866;50.160;14.768;2023-12-07T05:12:51;99634.66;;;-1.54;100.00
46876;BME280;32866;50.160;14.768;2023-12-07T05:15:17;99686.09;;;-1.20;100.00
46876;BME280;32866;50.160;14.768;2023-12-07T05:17:43;99621.41;;;-1.62;100.00
46876;BME280;32866;50.160;14.768;2023-12-07T05:20:10;99627.22;;;-1.60;100.00
46876;BME280;32866;50.160;14.768;2023-12-07T05:22:38;99638.03;;;-1.57;100.00
46876;BME280;32866;50.160;14.768;2023-12-07T05:25:04;99662.75;;;-1.51;100.00
46876;BME280;32866;50.160;14.768;2023-12-07T05:27:30;99661.44;;;-1.41;100.00
46876;BME280;32866;50.160;14.768;2023-12-07T05:29:56;99650.94;;;-1.46;100.00
46876;BME280;32866;50.160;14.768;2023-12-07T05:32:22;99674.66;;;-1.17;100.00
46876;BME280;32866;50.160;14.768;2023-12-07T05:34:48;99652.44;;;-1.49;100.00
46876;BME280;32866;50.160;14.768;2023-12-07T05:37:15;99631.34;;;-1.47;100.00
46876;BME280;32866;50.160;14.768;2023-12-07T05:39:41;99640.94;;;-1.30;100.00
46876;BME280;32866;50.160;14.768;2023-12-07T05:42:07;99640.25;;;-1.27;100.00
46876;BME280;32866;50.160;14.768;2023-12-07T05:44:34;99694.16;;;-0.84;100.00
46876;BME280;32866;50.160;14.768;2023-12-07T05:47:00;99664.63;;;-1.00;100.00
46876;BME280;32866;50.160;14.768;2023-12-07T05:49:26;99711.78;;;-0.87;100.00
46876;BME280;32866;50.160;14.768;2023-12-07T05:51:52;99642.22;;;-1.24;100.00
46876;BME280;32866;50.160;14.768;2023-12-07T05:54:18;99668.84;;;-1.19;100.00
46876;BME280;32866;50.160;14.768;2023-12-07T05:56:46;99696.25;;;-1.13;100.00
46876;BME280;32866;50.160;14.768;2023-12-07T05:59:12;99660.72;;;-1.38;100.00
46876;BME280;32866;50.160;14.768;2023-12-07T06:01:38;99665.13;;;-1.30;100.00
46876;BME280;32866;50.160;14.768;2023-12-07T06:04:07;99691.84;;;-1.21;100.00
46876;BME280;32866;50.160;14.768;2023-12-07T06:06:34;99683.47;;;-1.36;100.00
46876;BME280;32866;50.160;14.768;2023-12-07T06:09:00;99696.16;;;-1.17;100.00
46876;BME280;32866;50.160;14.768;2023-12-07T06:11:26;99689.88;;;-1.40;100.00
46876;BME280;32866;50.160;14.768;2023-12-07T06:13:52;99702.59;;;-1.21;100.00
46876;BME280;32866;50.160;14.768;2023-12-07T06:16:18;99661.88;;;-1.55;100.00
46876;BME280;32866;50.160;14.768;2023-12-07T06:18:44;99712.03;;;-1.12;100.00
46876;BME280;32866;50.160;14.768;2023-12-07T06:21:10;99707.03;;;-1.29;100.00
46876;BME280;32866;50.160;14.768;2023-12-07T06:23:36;99680.50;;;-1.46;100.00
46876;BME280;32866;50.160;14.768;2023-12-07T06:26:02;99711.34;;;-1.24;100.00
46876;BME280;32866;50.160;14.768;2023-12-07T06:28:30;99692.03;;;-1.46;100.00
46876;BME280;32866;50.160;14.768;2023-12-07T06:31:04;99709.00;;;-1.26;100.00
46876;BME280;32866;50.160;14.768;2023-12-07T06:33:30;99716.38;;;-1.23;100.00
46876;BME280;32866;50.160;14.768;2023-12-07T06:35:56;99730.00;;;-1.16;100.00
46876;BME280;32866;50.160;14.768;2023-12-07T06:38:22;99726.53;;;-1.16;100.00
46876;BME280;32866;50.160;14.768;2023-12-07T06:40:48;99712.06;;;-1.27;100.00
46876;BME280;32866;50.160;14.768;2023-12-07T06:43:14;99740.91;;;-1.08;100.00
46876;BME280;32866;50.160;14.768;2023-12-07T06:45:40;99709.97;;;-1.34;100.00
46876;BME280;32866;50.160;14.768;2023-12-07T06:48:06;99731.88;;;-1.00;100.00
46876;BME280;32866;50.160;14.768;2023-12-07T06:50:32;99714.16;;;-1.01;100.00
46876;BME280;32866;50.160;14.768;2023-12-07T06:52:59;99734.66;;;-0.97;100.00
46876;BME280;32866;50.160;14.768;2023-12-07T06:55:25;99685.28;;;-1.40;100.00
46876;BME280;32866;50.160;14.768;2023-12-07T06:57:51;99748.03;;;-1.00;100.00
46876;BME280;32866;50.160;14.768;2023-12-07T07:00:17;99746.72;;;-1.06;100.00
46876;BME280;32866;50.160;14.768;2023-12-07T07:02:44;99704.97;;;-1.36;100.00
46876;BME280;32866;50.160;14.768;2023-12-07T07:05:10;99739.09;;;-1.04;100.00
46876;BME280;32866;50.160;14.768;2023-12-07T07:07:37;99705.06;;;-1.32;100.00
46876;BME280;32866;50.160;14.768;2023-12-07T07:10:04;99752.19;;;-1.03;100.00
46876;BME280;32866;50.160;14.768;2023-12-07T07:12:30;99737.81;;;-1.26;100.00
46876;BME280;32866;50.160;14.768;2023-12-07T07:14:56;99749.22;;;-0.98;100.00
46876;BME280;32866;50.160;14.768;2023-12-07T07:17:22;99718.56;;;-1.28;100.00
46876;BME280;32866;50.160;14.768;2023-12-07T07:19:48;99731.91;;;-1.16;100.00
46876;BME280;32866;50.160;14.768;2023-12-07T07:22:14;99736.75;;;-1.06;100.00
46876;BME280;32866;50.160;14.768;2023-12-07T07:24:40;99764.94;;;-0.64;100.00
46876;BME280;32866;50.160;14.768;2023-12-07T07:27:06;99759.91;;;-0.66;100.00
46876;BME280;32866;50.160;14.768;2023-12-07T07:29:32;99763.09;;;-0.60;100.00
46876;BME280;32866;50.160;14.768;2023-12-07T07:31:58;99766.78;;;-0.68;100.00
46876;BME280;32866;50.160;14.768;2023-12-07T07:34:24;99750.94;;;-0.89;100.00
46876;BME280;32866;50.160;14.768;2023-12-07T07:36:50;99727.00;;;-0.95;100.00
46876;BME280;32866;50.160;14.768;2023-12-07T07:39:16;99756.03;;;-0.84;100.00
46876;BME280;32866;50.160;14.768;2023-12-07T07:41:42;99777.69;;;-0.61;100.00
46876;BME280;32866;50.160;14.768;2023-12-07T07:44:08;99731.09;;;-1.01;100.00
46876;BME280;32866;50.160;14.768;2023-12-07T07:46:34;99770.72;;;-0.62;100.00
46876;BME280;32866;50.160;14.768;2023-12-07T07:49:00;99724.66;;;-0.96;100.00
46876;BME280;32866;50.160;14.768;2023-12-07T07:51:26;99757.06;;;-0.73;100.00
46876;BME280;32866;50.160;14.768;2023-12-07T07:53:52;99750.91;;;-0.73;100.00
46876;BME280;32866;50.160;14.768;2023-12-07T07:56:19;99773.00;;;-0.64;100.00
46876;BME280;32866;50.160;14.768;2023-12-07T07:58:45;99747.34;;;-0.78;100.00
46876;BME280;32866;50.160;14.768;2023-12-07T08:01:11;99769.25;;;-0.60;100.00
46876;BME280;32866;50.160;14.768;2023-12-07T08:03:37;99725.31;;;-0.64;100.00
46876;BME280;32866;50.160;14.768;2023-12-07T08:06:04;99732.13;;;-0.50;100.00
46876;BME280;32866;50.160;14.768;2023-12-07T08:08:30;99775.50;;;-0.16;100.00
46876;BME280;32866;50.160;14.768;2023-12-07T08:10:55;99746.66;;;-0.35;100.00
46876;BME280;32866;50.160;14.768;2023-12-07T08:13:22;99749.06;;;-0.30;100.00
46876;BME280;32866;50.160;14.768;2023-12-07T08:15:48;99750.00;;;-0.23;100.00
46876;BME280;32866;50.160;14.768;2023-12-07T08:18:14;99747.06;;;-0.14;100.00
46876;BME280;32866;50.160;14.768;2023-12-07T08:20:40;99784.66;;;0.22;100.00
46876;BME280;32866;50.160;14.768;2023-12-07T08:23:06;99777.22;;;0.15;100.00
46876;BME280;32866;50.160;14.768;2023-12-07T08:25:32;99761.94;;;-0.01;100.00
46876;BME280;32866;50.160;14.768;2023-12-07T08:27:59;99794.69;;;0.21;100.00
46876;BME280;32866;50.160;14.768;2023-12-07T08:30:25;99787.81;;;0.24;100.00
46876;BME280;32866;50.160;14.768;2023-12-07T08:32:51;99798.50;;;0.20;100.00
46876;BME280;32866;50.160;14.768;2023-12-07T08:35:17;99791.97;;;0.21;100.00
46876;BME280;32866;50.160;14.768;2023-12-07T08:37:43;99765.50;;;-0.16;100.00
46876;BME280;32866;50.160;14.768;2023-12-07T08:40:09;99770.31;;;-0.06;100.00
46876;BME280;32866;50.160;14.768;2023-12-07T08:42:37;99793.56;;;0.03;100.00
46876;BME280;32866;50.160;14.768;2023-12-07T08:45:03;99800.78;;;0.18;100.00
46876;BME280;32866;50.160;14.768;2023-12-07T08:47:29;99793.38;;;-0.08;100.00
46876;BME280;32866;50.160;14.768;2023-12-07T08:49:57;99751.91;;;-0.23;100.00
46876;BME280;32866;50.160;14.768;2023-12-07T08:52:23;99800.94;;;0.25;100.00
46876;BME280;32866;50.160;14.768;2023-12-07T08:54:49;99789.69;;;0.23;100.00
46876;BME280;32866;50.160;14.768;2023-12-07T08:57:17;99801.53;;;0.61;100.00
46876;BME280;32866;50.160;14.768;2023-12-07T08:59:43;99804.78;;;0.70;100.00
46876;BME280;32866;50.160;14.768;2023-12-07T09:02:09;99764.19;;;0.40;100.00
46876;BME280;32866;50.160;14.768;2023-12-07T09:04:35;99795.06;;;0.66;100.00
46876;BME280;32866;50.160;14.768;2023-12-07T09:07:01;99802.66;;;0.83;100.00
46876;BME280;32866;50.160;14.768;2023-12-07T09:09:27;99808.22;;;0.94;100.00
46876;BME280;32866;50.160;14.768;2023-12-07T09:11:53;99810.72;;;1.06;100.00
46876;BME280;32866;50.160;14.768;2023-12-07T09:14:19;99753.06;;;0.68;100.00
46876;BME280;32866;50.160;14.768;2023-12-07T09:16:46;99813.00;;;1.04;100.00
46876;BME280;32866;50.160;14.768;2023-12-07T09:19:12;99810.66;;;1.03;100.00
46876;BME280;32866;50.160;14.768;2023-12-07T09:21:40;99774.66;;;0.68;100.00
46876;BME280;32866;50.160;14.768;2023-12-07T09:24:06;99810.97;;;0.98;100.00
46876;BME280;32866;50.160;14.768;2023-12-07T09:26:32;99817.91;;;0.99;100.00
46876;BME280;32866;50.160;14.768;2023-12-07T09:28:58;99757.28;;;0.66;100.00
46876;BME280;32866;50.160;14.768;2023-12-07T09:31:24;99817.59;;;1.04;100.00
46876;BME280;32866;50.160;14.768;2023-12-07T09:33:51;99819.28;;;1.12;100.00
46876;BME280;32866;50.160;14.768;2023-12-07T09:36:19;99815.41;;;1.09;100.00
46876;BME280;32866;50.160;14.768;2023-12-07T09:38:47;99804.56;;;1.06;100.00
46876;BME280;32866;50.160;14.768;2023-12-07T09:41:14;99825.47;;;1.13;100.00
46876;BME280;32866;50.160;14.768;2023-12-07T09:43:41;99809.72;;;1.18;100.00
46876;BME280;32866;50.160;14.768;2023-12-07T09:46:07;99814.53;;;1.32;100.00
46876;BME280;32866;50.160;14.768;2023-12-07T09:48:36;99818.59;;;1.45;100.00
46876;BME280;32866;50.160;14.768;2023-12-07T09:51:04;99813.31;;;1.53;100.00
46876;BME280;32866;50.160;14.768;2023-12-07T09:53:33;99786.03;;;1.35;100.00
46876;BME280;32866;50.160;14.768;2023-12-07T09:56:00;99794.88;;;1.32;100.00
46876;BME280;32866;50.160;14.768;2023-12-07T09:58:26;99812.00;;;1.43;100.00
46876;BME280;32866;50.160;14.768;2023-12-07T10:00:52;99815.88;;;1.45;100.00
46876;BME280;32866;50.160;14.768;2023-12-07T10:03:22;99808.25;;;1.51;100.00
46876;BME280;32866;50.160;14.768;2023-12-07T10:05:55;99817.94;;;1.56;100.00
46876;BME280;32866;50.160;14.768;2023-12-07T10:08:32;99818.47;;;1.65;100.00
46876;BME280;32866;50.160;14.768;2023-12-07T10:11:08;99813.06;;;1.65;100.00
46876;BME280;32866;50.160;14.768;2023-12-07T10:13:36;99796.41;;;1.59;100.00
46876;BME280;32866;50.160;14.768;2023-12-07T10:16:12;99802.22;;;1.61;100.00
46876;BME280;32866;50.160;14.768;2023-12-07T10:18:40;99798.47;;;1.70;100.00
46876;BME280;32866;50.160;14.768;2023-12-07T10:21:07;99803.97;;;1.80;100.00
46876;BME280;32866;50.160;14.768;2023-12-07T10:23:38;99803.63;;;1.82;100.00
46876;BME280;32866;50.160;14.768;2023-12-07T10:26:07;99804.81;;;1.84;100.00
46876;BME280;32866;50.160;14.768;2023-12-07T10:28:35;99802.19;;;1.92;100.00
46876;BME280;32866;50.160;14.768;2023-12-07T10:31:08;99802.75;;;2.08;100.00
46876;BME280;32866;50.160;14.768;2023-12-07T10:33:34;99753.53;;;1.92;100.00
46876;BME280;32866;50.160;14.768;2023-12-07T10:36:03;99789.50;;;2.33;100.00
46876;BME280;32866;50.160;14.768;2023-12-07T10:38:29;99788.28;;;2.31;100.00
46876;BME280;32866;50.160;14.768;2023-12-07T10:41:04;99793.72;;;2.34;100.00
46876;BME280;32866;50.160;14.768;2023-12-07T10:43:36;99797.16;;;2.28;100.00
46876;BME280;32866;50.160;14.768;2023-12-07T10:46:05;99778.75;;;2.03;100.00
46876;BME280;32866;50.160;14.768;2023-12-07T10:48:32;99786.81;;;1.99;100.00
46876;BME280;32866;50.160;14.768;2023-12-07T10:50:59;99745.19;;;1.70;100.00
46876;BME280;32866;50.160;14.768;2023-12-07T10:55:57;99789.66;;;2.14;100.00
46876;BME280;32866;50.160;14.768;2023-12-07T10:58:25;99769.25;;;1.82;100.00
46876;BME280;32866;50.160;14.768;2023-12-07T11:00:53;99800.47;;;2.10;100.00
46876;BME280;32866;50.160;14.768;2023-12-07T11:03:19;99792.34;;;2.10;100.00
46876;BME280;32866;50.160;14.768;2023-12-07T11:05:47;99799.78;;;2.20;100.00
46876;BME280;32866;50.160;14.768;2023-12-07T11:10:48;99797.69;;;2.44;100.00
46876;BME280;32866;50.160;14.768;2023-12-07T11:13:20;99797.75;;;2.51;100.00
46876;BME280;32866;50.160;14.768;2023-12-07T11:15:48;99783.44;;;2.47;100.00
46876;BME280;32866;50.160;14.768;2023-12-07T11:18:14;99742.56;;;2.15;100.00
46876;BME280;32866;50.160;14.768;2023-12-07T11:20:42;99788.91;;;2.58;100.00
46876;BME280;32866;50.160;14.768;2023-12-07T11:23:10;99775.34;;;2.51;100.00
46876;BME280;32866;50.160;14.768;2023-12-07T11:25:39;99755.78;;;2.23;100.00
46876;BME280;32866;50.160;14.768;2023-12-07T11:28:06;99798.97;;;2.57;100.00
46876;BME280;32866;50.160;14.768;2023-12-07T11:30:35;99796.25;;;2.54;100.00
46876;BME280;32866;50.160;14.768;2023-12-07T11:33:05;99777.47;;;2.31;100.00
46876;BME280;32866;50.160;14.768;2023-12-07T11:35:32;99742.59;;;2.18;100.00
46876;BME280;32866;50.160;14.768;2023-12-07T11:38:08;99778.69;;;2.37;100.00
46876;BME280;32866;50.160;14.768;2023-12-07T11:40:40;99790.84;;;2.57;100.00
46876;BME280;32866;50.160;14.768;2023-12-07T11:43:07;99781.59;;;2.58;100.00
46876;BME280;32866;50.160;14.768;2023-12-07T11:46:00;99794.38;;;2.62;100.00
46876;BME280;32866;50.160;14.768;2023-12-07T11:48:26;99767.88;;;2.37;100.00
46876;BME280;32866;50.160;14.768;2023-12-07T11:51:06;99790.88;;;2.61;100.00
46876;BME280;32866;50.160;14.768;2023-12-07T11:53:34;99758.16;;;2.32;100.00
46876;BME280;32866;50.160;14.768;2023-12-07T11:56:02;99740.25;;;2.17;100.00
46876;BME280;32866;50.160;14.768;2023-12-07T11:58:30;99792.75;;;2.53;100.00
46876;BME280;32866;50.160;14.768;2023-12-07T12:00:57;99785.38;;;2.50;100.00
46876;BME280;32866;50.160;14.768;2023-12-07T12:03:24;99776.91;;;2.52;100.00
46876;BME280;32866;50.160;14.768;2023-12-07T12:05:50;99755.03;;;2.27;100.00
46876;BME280;32866;50.160;14.768;2023-12-07T12:08:18;99760.22;;;2.46;100.00
46876;BME280;32866;50.160;14.768;2023-12-07T12:10:45;99783.47;;;2.54;100.00
46876;BME280;32866;50.160;14.768;2023-12-07T12:13:12;99778.41;;;2.49;100.00
46876;BME280;32866;50.160;14.768;2023-12-07T12:15:39;99776.78;;;2.41;100.00
46876;BME280;32866;50.160;14.768;2023-12-07T12:18:06;99779.09;;;2.39;100.00
46876;BME280;32866;50.160;14.768;2023-12-07T12:20:32;99749.47;;;2.12;100.00
46876;BME280;32866;50.160;14.768;2023-12-07T12:22:59;99734.97;;;1.90;100.00
46876;BME280;32866;50.160;14.768;2023-12-07T12:25:30;99776.97;;;2.18;100.00
46876;BME280;32866;50.160;14.768;2023-12-07T12:27:58;99752.50;;;2.03;100.00
46876;BME280;32866;50.160;14.768;2023-12-07T12:30:25;99736.47;;;1.88;100.00
46876;BME280;32866;50.160;14.768;2023-12-07T12:32:51;99733.72;;;1.80;100.00
46876;BME280;32866;50.160;14.768;2023-12-07T12:35:17;99754.44;;;2.03;100.00
46876;BME280;32866;50.160;14.768;2023-12-07T12:37:45;99753.25;;;2.04;100.00
46876;BME280;32866;50.160;14.768;2023-12-07T12:40:13;99746.22;;;1.96;100.00
46876;BME280;32866;50.160;14.768;2023-12-07T12:42:48;99775.03;;;2.18;100.00
46876;BME280;32866;50.160;14.768;2023-12-07T12:45:15;99764.97;;;2.15;100.00
46876;BME280;32866;50.160;14.768;2023-12-07T12:47:42;99770.41;;;2.19;100.00
46876;BME280;32866;50.160;14.768;2023-12-07T12:50:10;99718.19;;;1.74;100.00